Time;durP1;ratioP1;P1;durP2;ratioP2;P2;SDS_P1;SDS_P2;PMS_P1;PMS_P2;Temp;Humidity;BMP_temperature;BMP_pressure;BME280_temperature;BME280_humidity;BME280_pressure;Samples;Min_cycle;Max_cycle;Signal;HPM_P1;HPM_P2
2021/01/29 00:00:36;;;;;;;2.50;2.40;;;;;;;6.56;91.52;99708.09;4404131;32;20072;-77
2021/01/29 00:03:03;;;;;;;2.28;2.17;;;;;;;6.20;91.77;99650.91;4388996;32;20089;-75
2021/01/29 00:05:38;;;;;;;2.30;2.20;;;;;;;6.33;91.61;99653.69;4396724;32;20141;-74
2021/01/29 00:08:04;;;;;;;2.50;2.37;;;;;;;6.71;91.37;99708.22;4406265;32;20503;-77
2021/01/29 00:10:29;;;;;;;2.30;2.20;;;;;;;6.23;91.76;99609.03;4395340;32;20077;-76
2021/01/29 00:12:55;;;;;;;2.58;2.47;;;;;;;6.66;91.56;99655.50;4392075;32;20060;-75
2021/01/29 00:15:21;;;;;;;2.50;2.40;;;;;;;6.81;91.39;99685.94;4412742;32;20100;-75
2021/01/29 00:17:47;;;;;;;2.40;2.30;;;;;;;6.73;91.02;99662.88;4387521;32;20103;-75
2021/01/29 00:20:15;;;;;;;2.30;2.20;;;;;;;6.84;91.50;99670.16;4411909;32;20069;-75
2021/01/29 00:22:41;;;;;;;2.40;2.30;;;;;;;6.72;91.32;99648.19;4382246;32;20619;-76
2021/01/29 00:25:08;;;;;;;2.58;2.47;;;;;;;6.81;91.04;99654.66;4376256;32;20184;-75
2021/01/29 00:27:33;;;;;;;2.50;2.40;;;;;;;6.76;91.19;99647.09;4405159;32;20125;-75
2021/01/29 00:29:59;;;;;;;2.45;2.35;;;;;;;6.52;91.40;99604.91;4390866;32;20068;-74
2021/01/29 00:32:24;;;;;;;2.45;2.35;;;;;;;5.73;91.03;99480.50;4387188;32;20069;-75
2021/01/29 00:34:50;;;;;;;2.50;2.40;;;;;;;6.70;90.98;99629.16;4389056;32;20265;-76
2021/01/29 00:37:15;;;;;;;2.35;2.25;;;;;;;6.53;91.41;99600.53;4408480;32;20074;-75
2021/01/29 00:39:40;;;;;;;2.22;2.12;;;;;;;6.65;90.98;99617.28;4427937;32;20161;-76
2021/01/29 00:42:06;;;;;;;2.40;2.30;;;;;;;6.62;91.25;99617.47;4413410;32;20150;-75
2021/01/29 00:44:31;;;;;;;2.67;2.58;;;;;;;6.59;91.23;99613.25;4399924;32;20076;-74
2021/01/29 00:46:56;;;;;;;2.50;2.40;;;;;;;6.39;91.35;99583.88;4415481;32;20069;-75
2021/01/29 00:49:22;;;;;;;2.33;2.22;;;;;;;6.57;91.77;99610.75;4395802;32;20073;-75
2021/01/29 00:51:47;;;;;;;2.50;2.40;;;;;;;6.57;91.73;99600.31;4413375;32;20085;-76
2021/01/29 00:54:12;;;;;;;2.50;2.40;;;;;;;6.57;91.28;99586.41;4428833;32;20064;-74
2021/01/29 00:56:38;;;;;;;2.70;2.60;;;;;;;6.31;91.26;99535.69;4392292;32;20092;-75
2021/01/29 00:59:03;;;;;;;2.30;2.20;;;;;;;6.42;91.81;99550.78;4392722;32;20085;-75
2021/01/29 01:01:29;;;;;;;2.55;2.45;;;;;;;6.55;91.62;99570.84;4387557;32;20092;-75
2021/01/29 01:03:54;;;;;;;2.40;2.30;;;;;;;6.47;91.43;99560.00;4399595;32;20072;-75
2021/01/29 01:06:19;;;;;;;2.50;2.40;;;;;;;6.58;91.57;99575.09;4388176;32;20708;-75
2021/01/29 01:08:45;;;;;;;2.37;2.28;;;;;;;6.54;91.69;99563.97;4396178;32;20281;-74
2021/01/29 01:11:10;;;;;;;2.20;2.10;;;;;;;6.63;91.91;99561.78;4396894;32;20126;-75
2021/01/29 01:13:36;;;;;;;2.58;2.47;;;;;;;6.64;91.85;99566.09;4406362;32;20673;-75
2021/01/29 01:16:01;;;;;;;2.40;2.30;;;;;;;6.58;92.20;99547.25;4394323;32;20088;-75
2021/01/29 01:18:26;;;;;;;2.25;2.15;;;;;;;6.58;91.51;99541.19;4387575;32;20064;-74
2021/01/29 01:20:52;;;;;;;2.40;2.30;;;;;;;6.63;92.16;99540.94;4391490;32;20072;-75
2021/01/29 01:23:17;;;;;;;2.40;2.30;;;;;;;6.63;91.46;99541.78;4386405;32;20088;-75
2021/01/29 01:25:43;;;;;;;2.53;2.42;;;;;;;6.62;91.88;99532.28;4400974;32;20445;-74
2021/01/29 01:28:08;;;;;;;2.30;2.20;;;;;;;6.62;91.90;99524.47;4389691;32;20091;-74
2021/01/29 01:30:35;;;;;;;2.80;2.70;;;;;;;6.43;91.65;99489.87;4408464;32;20179;-75
2021/01/29 01:33:01;;;;;;;2.42;2.33;;;;;;;6.61;91.72;99507.13;4400204;32;20081;-75
2021/01/29 01:35:26;;;;;;;2.47;2.37;;;;;;;6.63;91.69;99507.03;4388360;32;20223;-75
2021/01/29 01:37:52;;;;;;;2.58;2.47;;;;;;;6.52;92.10;99485.03;4391862;32;20069;-75
2021/01/29 01:40:19;;;;;;;2.50;2.40;;;;;;;6.59;91.84;99477.69;4388818;32;20272;-75
2021/01/29 01:42:45;;;;;;;2.50;2.40;;;;;;;6.62;92.01;99485.34;4397962;32;20550;-76
2021/01/29 01:45:28;;;;;;;2.22;2.12;;;;;;;6.70;92.01;99466.69;4414313;32;20069;-75
2021/01/29 01:47:55;;;;;;;2.85;2.58;;;;;;;6.71;91.51;99453.53;4415060;32;20597;-74
2021/01/29 01:50:36;;;;;;;2.42;2.33;;;;;;;6.73;91.53;99459.50;4396773;32;20069;-76
2021/01/29 01:53:02;;;;;;;2.30;2.20;;;;;;;6.52;91.67;99401.63;4408561;32;20069;-75
2021/01/29 01:55:35;;;;;;;2.60;2.50;;;;;;;6.67;91.43;99425.97;4385572;32;20572;-75
2021/01/29 01:58:00;;;;;;;2.30;2.20;;;;;;;6.03;91.82;99327.97;4400732;32;20069;-75
2021/01/29 02:00:30;;;;;;;2.40;2.30;;;;;;;6.62;91.72;99424.56;4383920;32;20064;-76
2021/01/29 02:02:58;;;;;;;2.47;2.37;;;;;;;5.40;92.01;99207.28;4389324;32;20216;-75
2021/01/29 02:05:25;;;;;;;2.47;2.37;;;;;;;6.59;92.15;99404.72;4396366;32;20072;-75
2021/01/29 02:07:56;;;;;;;2.50;2.40;;;;;;;6.41;91.99;99371.88;4411434;32;20092;-75
2021/01/29 02:10:25;;;;;;;2.40;2.30;;;;;;;6.61;91.85;99389.81;4406991;32;20061;-75
2021/01/29 02:12:51;;;;;;;2.20;2.10;;;;;;;6.58;92.17;99379.59;4409850;32;20519;-76
2021/01/29 02:15:21;;;;;;;2.50;2.40;;;;;;;6.57;92.08;99373.53;4410889;32;20096;-75
2021/01/29 02:18:26;;;;;;;2.45;2.35;;;;;;;5.42;92.01;99199.41;4390219;32;20080;-75
2021/01/29 02:21:10;;;;;;;2.35;2.25;;;;;;;6.56;92.38;99368.41;4396276;32;20143;-75
2021/01/29 02:24:13;;;;;;;2.20;2.10;;;;;;;6.57;92.22;99357.91;4393111;32;20603;-76
2021/01/29 02:27:06;;;;;;;2.33;2.22;;;;;;;6.58;92.51;99350.91;4402445;32;20073;-75
2021/01/29 02:29:50;;;;;;;2.40;2.30;;;;;;;6.61;92.11;99348.13;4409838;32;20069;-76
2021/01/29 02:32:40;;;;;;;2.20;2.10;;;;;;;6.62;92.32;99326.34;4418978;32;20220;-76
2021/01/29 02:35:20;;;;;;;2.30;2.20;;;;;;;6.68;92.04;99315.56;4424380;32;20064;-75
2021/01/29 02:38:23;;;;;;;2.30;2.20;;;;;;;6.68;92.33;99310.34;4423655;32;20069;-75
2021/01/29 02:40:56;;;;;;;2.30;2.20;;;;;;;6.69;92.52;99306.78;4416455;32;20068;-75
2021/01/29 02:43:39;;;;;;;2.30;2.20;;;;;;;6.68;92.49;99294.72;4411501;32;20062;-75
2021/01/29 02:46:17;;;;;;;2.42;2.33;;;;;;;6.72;92.48;99282.34;4388762;32;20094;-76
2021/01/29 02:49:05;;;;;;;2.35;2.25;;;;;;;6.72;92.46;99280.56;4424614;32;20599;-75
2021/01/29 02:51:45;;;;;;;2.60;2.50;;;;;;;6.71;92.42;99272.81;4397150;32;20075;-75
2021/01/29 02:54:11;;;;;;;2.35;2.25;;;;;;;6.74;92.23;99264.84;4422156;32;20083;-75
2021/01/29 02:56:36;;;;;;;2.67;2.58;;;;;;;6.70;92.40;99260.72;4414328;32;20072;-75
2021/01/29 02:59:29;;;;;;;2.30;2.20;;;;;;;6.62;92.29;99239.50;4430314;32;20121;-76
2021/01/29 03:02:00;;;;;;;2.20;2.10;;;;;;;6.58;92.86;99221.41;4392090;32;21752;-75
2021/01/29 03:04:40;;;;;;;2.30;2.20;;;;;;;6.42;92.21;99180.72;4400045;32;20082;-75
2021/01/29 03:07:09;;;;;;;2.33;2.22;;;;;;;6.70;92.55;99214.63;4387009;32;20662;-75
2021/01/29 03:09:53;;;;;;;2.20;2.10;;;;;;;6.72;92.05;99211.94;4400890;32;20069;-75
2021/01/29 03:12:23;;;;;;;3.90;2.53;;;;;;;6.71;92.32;99208.47;4408051;32;20069;-76
2021/01/29 03:14:56;;;;;;;2.40;2.30;;;;;;;6.26;92.44;99134.75;4408932;32;20385;-75
2021/01/29 03:17:27;;;;;;;2.40;2.30;;;;;;;6.72;92.90;99199.75;4400446;32;20081;-76
2021/01/29 03:20:02;;;;;;;2.37;2.28;;;;;;;6.75;92.40;99194.31;4388196;32;20068;-76
2021/01/29 03:22:36;;;;;;;2.50;2.40;;;;;;;6.31;92.13;99114.44;4411124;32;20076;-76
2021/01/29 03:25:28;;;;;;;2.30;2.20;;;;;;;6.72;92.78;99168.44;4387589;32;20065;-76
2021/01/29 03:27:59;;;;;;;2.40;2.30;;;;;;;6.29;92.11;99095.47;4384742;32;20065;-76
2021/01/29 03:30:27;;;;;;;2.28;2.17;;;;;;;6.22;92.07;99075.94;4397364;32;20188;-76
2021/01/29 03:32:53;;;;;;;2.30;2.20;;;;;;;6.54;92.33;99120.88;4386210;32;20722;-75
2021/01/29 03:35:31;;;;;;;2.40;2.30;;;;;;;6.55;92.48;99109.50;4387378;32;20207;-75
2021/01/29 03:38:08;;;;;;;2.50;2.40;;;;;;;6.62;92.38;99117.81;4400077;32;20073;-75
2021/01/29 03:40:37;;;;;;;2.40;2.30;;;;;;;6.53;92.40;99095.72;4386768;32;20095;-76
2021/01/29 03:43:02;;;;;;;2.40;2.30;;;;;;;6.71;92.79;99116.41;4388504;32;20126;-76
2021/01/29 03:45:35;;;;;;;2.40;2.30;;;;;;;6.58;92.50;99085.87;4427999;32;20084;-75
2021/01/29 03:48:14;;;;;;;2.30;2.20;;;;;;;6.41;92.19;99054.78;4388627;32;20070;-76
2021/01/29 03:50:51;;;;;;;2.30;2.20;;;;;;;6.77;92.43;99098.59;4404361;32;20251;-76
2021/01/29 03:53:45;;;;;;;2.37;2.28;;;;;;;5.40;92.48;98871.72;4427120;32;20602;-76
2021/01/29 03:56:41;;;;;;;2.47;2.37;;;;;;;6.76;92.40;99081.28;4403090;32;20076;-76
2021/01/29 03:59:18;;;;;;;2.50;2.40;;;;;;;6.44;92.25;99009.50;4404478;32;20672;-76
2021/01/29 04:01:43;;;;;;;2.37;2.28;;;;;;;6.84;92.68;99064.34;4398954;32;20146;-76
2021/01/29 04:04:29;;;;;;;2.30;2.20;;;;;;;6.37;92.25;98977.75;4412502;32;20559;-76
2021/01/29 04:07:01;;;;;;;2.40;2.30;;;;;;;6.87;92.39;99045.88;4400784;32;20104;-76
2021/01/29 04:09:59;;;;;;;2.60;2.50;;;;;;;6.85;92.63;99016.47;4406265;32;20093;-76
2021/01/29 04:12:49;;;;;;;2.45;2.35;;;;;;;6.81;92.65;99017.59;4407708;32;20161;-76
2021/01/29 04:15:23;;;;;;;2.40;2.30;;;;;;;6.78;92.44;98993.38;4407680;32;20790;-75
2021/01/29 04:17:57;;;;;;;2.50;2.40;;;;;;;6.79;92.70;98999.44;4400044;32;20081;-76
2021/01/29 04:20:51;;;;;;;3.33;3.22;;;;;;;6.67;92.52;98969.75;4405923;32;21233;-77
2021/01/29 04:23:22;;;;;;;2.30;2.20;;;;;;;6.82;92.15;98993.22;4370744;32;20167;-75
2021/01/29 04:25:53;;;;;;;2.40;2.30;;;;;;;6.61;92.13;98948.47;4402118;32;20086;-76
2021/01/29 04:28:19;;;;;;;2.30;2.20;;;;;;;6.84;92.72;98979.13;4400039;32;20119;-75
2021/01/29 04:30:46;;;;;;;2.33;2.22;;;;;;;6.69;92.25;98947.03;4410821;32;20177;-76
2021/01/29 04:33:38;;;;;;;2.40;2.30;;;;;;;6.87;92.54;98968.47;4409062;32;20088;-75
2021/01/29 04:36:04;;;;;;;2.40;2.30;;;;;;;6.72;92.28;98926.00;4393469;32;20077;-76
2021/01/29 04:38:50;;;;;;;2.40;2.30;;;;;;;6.90;92.74;98944.84;4389520;32;20155;-75
2021/01/29 04:41:31;;;;;;;2.78;2.60;;;;;;;6.96;92.63;98931.38;4386450;32;20112;-75
2021/01/29 04:44:12;;;;;;;2.30;2.20;;;;;;;7.01;92.52;98922.44;4422854;32;20222;-76
2021/01/29 04:46:44;;;;;;;2.50;2.40;;;;;;;6.98;92.51;98916.47;4416208;32;20572;-76
2021/01/29 04:49:28;;;;;;;2.20;2.10;;;;;;;6.22;92.26;98781.59;4396243;32;20062;-75
2021/01/29 04:52:12;;;;;;;2.30;2.20;;;;;;;6.99;92.71;98899.88;4409020;32;20129;-75
2021/01/29 04:54:57;;;;;;;2.30;2.20;;;;;;;7.05;92.32;98893.41;4423135;32;20085;-74
2021/01/29 04:57:47;;;;;;;2.40;2.30;;;;;;;7.10;92.85;98893.13;4400013;32;20605;-75
2021/01/29 05:00:38;;;;;;;2.50;2.40;;;;;;;7.16;92.43;98932.69;4424201;32;20140;-75
2021/01/29 05:03:22;;;;;;;2.40;2.30;;;;;;;7.18;92.67;98941.25;4424891;32;20109;-75
2021/01/29 05:05:59;;;;;;;2.40;2.30;;;;;;;7.17;92.07;98951.78;4414703;32;20070;-75
2021/01/29 05:08:50;;;;;;;2.50;2.40;;;;;;;7.19;92.27;98963.78;4404917;32;20093;-75
2021/01/29 05:11:21;;;;;;;2.40;2.30;;;;;;;7.21;92.88;98947.19;4410176;32;20072;-74
2021/01/29 05:13:58;;;;;;;2.42;2.33;;;;;;;7.18;92.30;98943.84;4422070;32;20065;-75
2021/01/29 05:16:45;;;;;;;2.58;2.47;;;;;;;7.17;92.28;98938.72;4424295;32;20096;-76
2021/01/29 05:19:31;;;;;;;2.33;2.22;;;;;;;7.14;92.17;98934.56;4427916;32;20064;-75
2021/01/29 05:22:06;;;;;;;2.50;2.40;;;;;;;7.08;92.28;98921.09;4407777;32;20068;-75
2021/01/29 05:24:45;;;;;;;2.20;2.10;;;;;;;7.11;92.75;98924.31;4389087;32;20069;-76
2021/01/29 05:27:35;;;;;;;2.53;2.42;;;;;;;7.09;92.58;98913.16;4395629;32;20068;-75
2021/01/29 05:30:20;;;;;;;2.33;2.22;;;;;;;7.07;92.32;98914.19;4423870;32;20086;-75
2021/01/29 05:33:10;;;;;;;2.28;2.17;;;;;;;7.05;92.79;98911.69;4422562;32;20704;-75
2021/01/29 05:35:56;;;;;;;2.50;2.40;;;;;;;6.87;92.96;98873.78;4424513;32;20099;-75
2021/01/29 05:38:57;;;;;;;2.40;2.30;;;;;;;7.06;92.35;98899.50;4399300;32;20481;-75
2021/01/29 05:41:38;;;;;;;2.55;2.45;;;;;;;7.08;93.00;98903.66;4373635;32;20131;-75
2021/01/29 05:44:22;;;;;;;2.53;2.42;;;;;;;7.10;92.29;98908.78;4425601;32;20072;-75
2021/01/29 05:47:12;;;;;;;2.50;2.40;;;;;;;7.12;93.07;98902.53;4416057;32;20866;-77
2021/01/29 05:50:15;;;;;;;2.60;2.50;;;;;;;7.15;92.43;98910.13;4405477;32;20088;-76
2021/01/29 05:53:08;;;;;;;2.40;2.30;;;;;;;7.16;92.60;98909.22;4406174;32;20061;-75
2021/01/29 05:55:46;;;;;;;2.60;2.50;;;;;;;7.18;92.98;98914.31;4410777;32;20075;-76
2021/01/29 05:59:07;;;;;;;2.50;2.40;;;;;;;7.14;92.51;98894.59;4417553;32;20854;-77
2021/01/29 06:02:10;;;;;;;2.42;2.33;;;;;;;7.23;93.19;98890.53;4366471;32;20085;-77
2021/01/29 06:04:56;;;;;;;2.40;2.30;;;;;;;7.30;93.06;98897.03;4411071;32;20085;-76
2021/01/29 06:07:59;;;;;;;2.53;2.42;;;;;;;7.23;93.21;98887.91;4414839;32;20083;-76
2021/01/29 06:10:33;;;;;;;2.47;2.37;;;;;;;7.48;92.70;98898.38;4369126;32;20228;-75
2021/01/29 06:13:10;;;;;;;2.40;2.30;;;;;;;7.92;91.79;98901.47;4389103;32;20088;-76
2021/01/29 06:15:54;;;;;;;2.50;2.40;;;;;;;8.01;91.49;98894.75;4423703;32;20881;-76
2021/01/29 06:18:57;;;;;;;2.40;2.30;;;;;;;8.28;90.46;98881.47;4420687;32;20134;-76
2021/01/29 06:21:29;;;;;;;2.53;2.42;;;;;;;8.26;89.60;98893.81;4415985;32;20084;-75
2021/01/29 06:24:28;;;;;;;2.47;2.37;;;;;;;8.33;88.96;98900.28;4402687;32;20199;-76
2021/01/29 06:27:21;;;;;;;2.60;2.50;;;;;;;8.32;87.85;98899.47;4418985;32;20080;-71
2021/01/29 06:30:00;;;;;;;2.53;2.42;;;;;;;8.29;87.89;98881.37;4418687;32;20081;-73
2021/01/29 06:32:50;;;;;;;2.65;2.55;;;;;;;8.37;86.82;98899.12;4412969;32;20080;-71
2021/01/29 06:35:29;;;;;;;2.50;2.40;;;;;;;8.37;87.31;98915.62;4425794;32;20218;-71
2021/01/29 06:38:14;;;;;;;2.60;2.50;;;;;;;8.42;86.55;98923.19;4423145;32;20070;-71
2021/01/29 06:40:54;;;;;;;2.60;2.50;;;;;;;8.46;85.67;98931.63;4402238;32;20089;-75
2021/01/29 06:43:46;;;;;;;2.45;2.35;;;;;;;8.40;86.29;98925.06;4405407;32;20084;-71
2021/01/29 06:46:30;;;;;;;2.60;2.50;;;;;;;8.43;86.30;98922.25;4393780;32;20075;-72
2021/01/29 06:49:06;;;;;;;2.50;2.40;;;;;;;8.37;86.22;98936.53;4410474;32;20139;-72
2021/01/29 06:51:43;;;;;;;2.70;2.60;;;;;;;8.43;85.32;98947.56;4412328;32;20651;-72
2021/01/29 06:54:10;;;;;;;2.50;2.40;;;;;;;8.48;84.64;98953.28;4411558;32;20077;-71
2021/01/29 06:57:02;;;;;;;2.60;2.50;;;;;;;8.45;84.75;98961.34;4403153;32;20096;-71
2021/01/29 06:59:48;;;;;;;2.58;2.47;;;;;;;8.50;85.33;98969.69;4409157;32;20179;-72
2021/01/29 07:02:26;;;;;;;2.50;2.40;;;;;;;8.44;84.75;98959.66;4414527;32;20112;-72
2021/01/29 07:05:14;;;;;;;2.90;2.80;;;;;;;8.46;84.25;98974.31;4418812;32;20069;-75
2021/01/29 07:07:57;;;;;;;2.80;2.70;;;;;;;8.45;85.23;98974.41;4410176;32;20550;-75
2021/01/29 07:10:47;;;;;;;2.53;2.42;;;;;;;8.42;84.58;98969.41;4391495;32;20149;-75
2021/01/29 07:13:37;;;;;;;2.60;2.50;;;;;;;8.42;84.54;98980.72;4427273;32;20073;-72
2021/01/29 07:16:17;;;;;;;2.60;2.50;;;;;;;8.58;84.77;98972.63;4407920;32;20100;-71
2021/01/29 07:19:11;;;;;;;2.50;2.40;;;;;;;8.52;84.73;98986.09;4410539;32;20085;-73
2021/01/29 07:21:45;;;;;;;2.67;2.58;;;;;;;8.47;85.77;98977.75;4408534;32;20088;-74
2021/01/29 07:24:30;;;;;;;2.75;2.65;;;;;;;8.46;85.33;98987.37;4405290;32;20859;-72
2021/01/29 07:27:15;;;;;;;2.60;2.50;;;;;;;8.40;86.81;98982.56;4405119;32;20100;-72
2021/01/29 07:29:47;;;;;;;2.58;2.47;;;;;;;8.43;86.68;98992.00;4377748;32;20077;-72
2021/01/29 07:32:46;;;;;;;2.70;2.60;;;;;;;8.40;86.91;98993.03;4389275;32;20069;-73
2021/01/29 07:35:38;;;;;;;2.40;2.30;;;;;;;8.28;86.46;98976.41;4386311;32;20827;-71
2021/01/29 07:38:19;;;;;;;2.60;2.50;;;;;;;8.42;87.16;99003.37;4409790;32;20490;-71
2021/01/29 07:41:23;;;;;;;2.50;2.40;;;;;;;8.42;87.71;99006.84;4423238;32;20073;-71
2021/01/29 07:44:03;;;;;;;2.40;2.30;;;;;;;7.53;87.34;98879.78;4386852;32;20206;-70
2021/01/29 07:46:53;;;;;;;2.97;2.78;;;;;;;8.41;87.71;99020.00;4421646;32;20228;-71
2021/01/29 07:49:21;;;;;;;2.42;2.33;;;;;;;8.38;87.66;99011.41;4408801;32;20143;-70
2021/01/29 07:51:53;;;;;;;2.50;2.40;;;;;;;8.37;86.93;99030.66;4422735;32;20100;-70
2021/01/29 07:54:52;;;;;;;2.42;2.33;;;;;;;8.36;87.09;99029.00;4421032;32;20096;-72
2021/01/29 07:57:30;;;;;;;2.45;2.35;;;;;;;8.30;87.63;99023.34;4407677;32;20081;-73
2021/01/29 08:00:33;;;;;;;2.90;2.80;;;;;;;8.25;88.31;99030.69;4409689;32;20129;-72
2021/01/29 08:03:37;;;;;;;2.50;2.40;;;;;;;8.29;87.24;99038.19;4406382;32;20598;-71
2021/01/29 08:06:22;;;;;;;2.60;2.50;;;;;;;8.27;88.07;99032.22;4369833;32;20223;-73
2021/01/29 08:08:53;;;;;;;2.75;2.65;;;;;;;8.26;87.95;99035.81;4399400;32;20084;-71
2021/01/29 08:11:18;;;;;;;2.50;2.40;;;;;;;8.22;88.03;99013.44;4412132;32;20523;-73
2021/01/29 08:13:54;;;;;;;2.50;2.40;;;;;;;8.32;87.51;99034.53;4399774;32;20142;-73
2021/01/29 08:16:51;;;;;;;2.80;2.70;;;;;;;8.41;87.34;99038.28;4406442;32;20072;-70
2021/01/29 08:19:26;;;;;;;2.40;2.30;;;;;;;8.47;86.46;99053.56;4409885;32;20065;-73
2021/01/29 08:22:16;;;;;;;2.60;2.50;;;;;;;8.46;85.72;99057.97;4414672;32;20081;-70
2021/01/29 08:25:08;;;;;;;3.30;3.08;;;;;;;8.58;84.98;99059.72;4409356;32;20207;-72
2021/01/29 08:28:10;;;;;;;2.50;2.40;;;;;;;8.53;84.56;99069.66;4418078;32;20098;-73
2021/01/29 08:31:05;;;;;;;2.60;2.50;;;;;;;8.55;85.06;99067.78;4420058;32;20827;-72
2021/01/29 08:34:00;;;;;;;2.75;2.65;;;;;;;8.57;84.02;99086.81;4398924;32;20092;-74
2021/01/29 08:36:42;;;;;;;2.50;2.40;;;;;;;8.58;84.67;99075.41;4394893;32;20163;-71
2021/01/29 08:39:26;;;;;;;2.58;2.47;;;;;;;8.63;83.76;99080.31;4421905;32;20070;-70
2021/01/29 08:42:05;;;;;;;2.42;2.33;;;;;;;8.64;83.06;99086.37;4409739;32;20073;-69
2021/01/29 08:44:53;;;;;;;2.50;2.40;;;;;;;8.72;82.78;99084.91;4397718;32;20704;-73
2021/01/29 08:47:37;;;;;;;2.60;2.50;;;;;;;8.80;81.48;99071.28;4397896;32;20920;-71
2021/01/29 08:50:21;;;;;;;2.50;2.40;;;;;;;7.65;81.69;98901.59;4422418;32;20092;-71
2021/01/29 08:53:08;;;;;;;2.70;2.60;;;;;;;8.72;81.15;99069.22;4427289;32;20061;-72
2021/01/29 08:55:43;;;;;;;2.60;2.50;;;;;;;8.83;80.43;99065.00;4397357;32;20087;-71
2021/01/29 08:58:30;;;;;;;2.60;2.50;;;;;;;8.84;79.78;99085.81;4412221;32;20068;-75
2021/01/29 09:01:08;;;;;;;2.40;2.30;;;;;;;8.75;79.53;99089.91;4423565;32;20077;-71
2021/01/29 09:03:37;;;;;;;2.60;2.50;;;;;;;8.77;80.91;99097.66;4394841;32;20175;-72
2021/01/29 09:06:24;;;;;;;2.50;2.40;;;;;;;8.79;78.74;99091.34;4379319;32;20603;-72
2021/01/29 09:09:00;;;;;;;2.62;2.53;;;;;;;8.90;77.65;99102.84;4391569;32;20170;-71
2021/01/29 09:11:36;;;;;;;2.40;2.30;;;;;;;8.90;78.76;99102.84;4409909;32;20069;-71
2021/01/29 09:14:11;;;;;;;2.40;2.30;;;;;;;8.85;77.26;99094.50;4394627;32;20074;-72
2021/01/29 09:16:36;;;;;;;2.60;2.50;;;;;;;8.92;77.46;99112.28;4391739;32;20064;-75
2021/01/29 09:19:07;;;;;;;2.50;2.40;;;;;;;8.91;76.15;99115.81;4391895;32;20079;-74
2021/01/29 09:21:41;;;;;;;2.50;2.40;;;;;;;8.88;77.18;99123.03;4391010;32;20080;-71
2021/01/29 09:24:21;;;;;;;2.70;2.60;;;;;;;8.88;77.41;99123.91;4386869;32;20073;-76
2021/01/29 09:27:05;;;;;;;2.50;2.40;;;;;;;8.94;77.11;99138.31;4396229;32;20057;-73
2021/01/29 09:29:43;;;;;;;2.50;2.40;;;;;;;8.20;75.39;99002.25;4414795;32;20173;-74
2021/01/29 09:32:11;;;;;;;2.45;2.35;;;;;;;8.98;76.03;99150.25;4388536;32;20139;-74
2021/01/29 09:34:57;;;;;;;2.60;2.50;;;;;;;9.05;76.29;99140.19;4387213;32;20091;-71
2021/01/29 09:37:23;;;;;;;2.50;2.40;;;;;;;9.16;74.78;99130.63;4402081;32;20085;-78
2021/01/29 09:39:55;;;;;;;2.60;2.50;;;;;;;9.21;75.45;99134.69;4395525;32;20595;-75
2021/01/29 09:42:50;;;;;;;2.60;2.50;;;;;;;9.31;74.26;99147.00;4412559;32;20161;-69
2021/01/29 09:45:23;;;;;;;2.70;2.60;;;;;;;9.29;74.95;99124.50;4409256;32;20085;-70
2021/01/29 09:47:54;;;;;;;2.50;2.40;;;;;;;9.39;73.90;99144.66;4395116;32;20072;-72
2021/01/29 09:50:23;;;;;;;2.70;2.60;;;;;;;9.38;74.13;99153.47;4388330;32;20080;-68
2021/01/29 09:53:09;;;;;;;2.78;2.67;;;;;;;9.30;73.43;99158.44;4386160;32;20081;-69
2021/01/29 09:56:02;;;;;;;2.62;2.53;;;;;;;9.23;74.46;99166.84;4418711;32;20073;-69
2021/01/29 09:58:30;;;;;;;;;;;;;;;9.15;74.98;99152.50;4395227;32;20568;-72
2021/01/29 10:01:15;;;;;;;2.60;2.50;;;;;;;9.14;74.07;99184.87;4422023;32;19987;-72
2021/01/29 10:03:56;;;;;;;2.67;2.58;;;;;;;9.15;74.81;99177.84;4380844;32;20119;-72
2021/01/29 10:06:27;;;;;;;2.70;2.60;;;;;;;9.18;74.19;99188.06;4397780;32;20069;-72
2021/01/29 10:08:55;;;;;;;2.60;2.50;;;;;;;9.29;74.00;99190.78;4388420;32;20637;-71
2021/01/29 10:11:25;;;;;;;2.60;2.50;;;;;;;9.35;73.49;99192.13;4388186;32;20072;-71
2021/01/29 10:14:16;;;;;;;2.50;2.40;;;;;;;9.43;73.15;99215.97;4396311;32;20069;-71
2021/01/29 10:16:55;;;;;;;2.70;2.60;;;;;;;9.52;73.25;99209.25;4400857;32;20084;-70
2021/01/29 10:19:27;;;;;;;2.60;2.50;;;;;;;9.60;72.58;99209.53;4398757;32;20073;-71
2021/01/29 10:21:58;;;;;;;2.70;2.60;;;;;;;9.59;72.04;99213.09;4417488;32;20091;-71
2021/01/29 10:24:59;;;;;;;2.83;2.72;;;;;;;9.63;72.00;99217.19;4427427;32;20213;-74
2021/01/29 10:27:54;;;;;;;2.58;2.47;;;;;;;9.75;73.06;99224.16;4411507;32;20156;-73
2021/01/29 10:30:45;;;;;;;2.62;2.53;;;;;;;9.89;71.35;99217.91;4414499;32;20650;-74
2021/01/29 10:33:26;;;;;;;2.65;2.55;;;;;;;9.90;71.07;99223.97;4398082;32;20203;-73
2021/01/29 10:36:00;;;;;;;2.60;2.50;;;;;;;9.90;71.49;99221.34;4386507;32;20176;-74
2021/01/29 10:38:31;;;;;;;3.42;3.20;;;;;;;9.88;70.62;99216.25;4416142;32;20164;-71
2021/01/29 10:41:24;;;;;;;2.60;2.50;;;;;;;9.37;70.54;99151.78;4397126;32;20108;-72
2021/01/29 10:43:54;;;;;;;2.67;2.58;;;;;;;10.04;69.64;99220.34;4415204;32;20065;-73
2021/01/29 10:46:23;;;;;;;2.90;2.80;;;;;;;10.19;69.62;99229.69;4411763;32;20073;-70
2021/01/29 10:48:50;;;;;;;2.67;2.58;;;;;;;10.22;70.10;99239.13;4417808;32;20655;-71
2021/01/29 10:51:23;;;;;;;2.83;2.72;;;;;;;10.27;70.49;99235.22;4423546;32;21039;-71
2021/01/29 10:54:00;;;;;;;2.60;2.50;;;;;;;10.15;69.25;99241.38;4397321;32;20111;-73
2021/01/29 10:56:43;;;;;;;2.80;2.70;;;;;;;10.06;69.06;99240.25;4412404;32;20221;-75
2021/01/29 10:59:17;;;;;;;2.60;2.50;;;;;;;9.95;69.88;99237.59;4388480;32;20058;-77
2021/01/29 11:01:47;;;;;;;2.70;2.60;;;;;;;9.84;70.80;99250.62;4394001;32;20275;-75
2021/01/29 11:04:23;;;;;;;2.72;2.62;;;;;;;9.73;70.96;99236.53;4386960;32;20077;-74
2021/01/29 11:06:54;;;;;;;2.80;2.70;;;;;;;9.81;71.31;99248.25;4407669;32;20196;-74
2021/01/29 11:09:30;;;;;;;2.80;2.70;;;;;;;9.78;71.70;99251.91;4388566;32;20118;-75
2021/01/29 11:12:16;;;;;;;2.78;2.67;;;;;;;9.78;72.14;99254.50;4386209;32;20100;-74
2021/01/29 11:14:46;;;;;;;2.70;2.60;;;;;;;9.71;72.71;99258.53;4393289;32;20084;-72
2021/01/29 11:17:22;;;;;;;2.53;2.42;;;;;;;9.30;73.00;99199.47;4395430;32;20077;-72
2021/01/29 11:19:48;;;;;;;2.70;2.60;;;;;;;9.74;71.89;99264.41;4384735;32;20091;-73
2021/01/29 11:22:18;;;;;;;2.78;2.67;;;;;;;9.81;72.04;99245.63;4404549;32;20171;-72
2021/01/29 11:25:14;;;;;;;2.67;2.58;;;;;;;9.84;71.42;99245.38;4405305;32;20073;-72
2021/01/29 11:27:42;;;;;;;2.70;2.60;;;;;;;9.83;72.09;99247.16;4403963;32;20589;-73
2021/01/29 11:30:15;;;;;;;2.70;2.60;;;;;;;9.87;71.80;99259.09;4407154;32;20080;-73
2021/01/29 11:32:42;;;;;;;2.70;2.60;;;;;;;9.76;72.25;99253.78;4400315;32;20088;-73
2021/01/29 11:35:36;;;;;;;2.60;2.50;;;;;;;9.83;72.66;99264.69;4387097;32;20087;-72
2021/01/29 11:38:36;;;;;;;3.65;3.30;;;;;;;9.82;71.34;99253.34;4397500;32;20084;-72
2021/01/29 11:41:04;;;;;;;2.70;2.60;;;;;;;9.83;71.65;99259.44;4392707;32;20069;-71
2021/01/29 11:43:43;;;;;;;2.70;2.60;;;;;;;9.77;72.73;99255.47;4419198;32;20065;-72
2021/01/29 11:46:13;;;;;;;2.70;2.60;;;;;;;9.78;73.76;99251.91;4397118;32;20088;-70
2021/01/29 11:48:55;;;;;;;2.80;2.70;;;;;;;9.71;75.00;99241.03;4414150;32;20089;-74
2021/01/29 11:51:29;;;;;;;3.53;3.33;;;;;;;9.77;74.57;99242.38;4397100;32;20077;-77
2021/01/29 11:54:12;;;;;;;2.72;2.62;;;;;;;9.82;75.23;99242.03;4408532;32;20146;-73
2021/01/29 11:56:40;;;;;;;;;;;;;;;9.82;74.19;99242.03;4398108;32;20072;-72
2021/01/29 11:59:33;;;;;;;2.60;2.50;;;;;;;10.19;73.72;99241.03;4430767;32;19993;-76
2021/01/29 12:02:01;;;;;;;;;;;;;;;10.45;72.34;99240.91;4406367;32;20108;-74
2021/01/29 12:04:48;;;;;;;3.20;3.00;;;;;;;10.25;71.50;99233.66;4401581;32;20003;-74
2021/01/29 12:07:20;;;;;;;2.70;2.60;;;;;;;10.05;71.63;99212.38;4397435;32;20104;-73
2021/01/29 12:10:00;;;;;;;2.70;2.60;;;;;;;10.03;72.21;99230.00;4398836;32;20615;-73
2021/01/29 12:12:29;;;;;;;2.70;2.60;;;;;;;9.87;73.38;99177.87;4403983;32;20069;-73
2021/01/29 12:15:08;;;;;;;2.70;2.60;;;;;;;10.45;72.12;99224.34;4384466;32;20073;-74
2021/01/29 12:17:34;;;;;;;2.80;2.70;;;;;;;10.46;71.78;99220.75;4400295;32;20678;-71
2021/01/29 12:20:22;;;;;;;2.80;2.70;;;;;;;10.46;70.64;99218.13;4377673;32;20156;-73
2021/01/29 12:23:06;;;;;;;2.70;2.60;;;;;;;10.34;69.57;99210.25;4384053;32;20132;-75
2021/01/29 12:25:58;;;;;;;2.80;2.70;;;;;;;10.22;70.33;99170.97;4396839;32;20539;-71
2021/01/29 12:28:45;;;;;;;3.55;3.45;;;;;;;10.41;70.90;99207.16;4381353;32;20561;-73
2021/01/29 12:31:38;;;;;;;3.00;2.90;;;;;;;10.37;69.64;99199.50;4389199;32;20088;-73
2021/01/29 12:34:16;;;;;;;;;;;;;;;10.51;68.53;99193.22;4420330;32;20088;-74